Аэропорт
Челябинск (USCC)

 USCC / CEK
ЗЦ Екатеринбург
Екатеринбург (USSS)
Челябинск (USCC)
 55.30580, 61.50330  / 769 ft

 USCC 140200Z 1403/1503 03003G08MPS 3100 BR OVC006 TEMPO 1403/1409 08003MPS 0500 FZFG VV002 FM140900 14003G08MPS 4000 BR OVC011 TEMPO 1409/1503 20003MPS 3100 -SN BR FU OVC007
АИП 1605, АИП Таблицы, Данные
показать схемы

2018 © VATRUS division